Time;durP1;ratioP1;P1;durP2;ratioP2;P2;SDS_P1;SDS_P2;PMS_P1;PMS_P2;Temp;Humidity;BMP_temperature;BMP_pressure;BME280_temperature;BME280_humidity;BME280_pressure;Samples;Min_cycle;Max_cycle;Signal;HPM_P1;HPM_P2
2022/05/13 00:01:10;;;;;;;5.65;2.55;;;13.80;99.90;;;;;;5052655;28;20103;-52
2022/05/13 00:03:38;;;;;;;3.40;2.13;;;13.70;99.90;;;;;;5052395;28;20120;-54
2022/05/13 00:06:04;;;;;;;5.88;2.55;;;13.70;99.90;;;;;;5052647;28;20021;-54
2022/05/13 00:08:29;;;;;;;5.40;2.50;;;13.70;99.90;;;;;;5053541;28;20053;-52
2022/05/13 00:10:56;;;;;;;4.63;2.40;;;13.70;99.90;;;;;;5052223;28;20442;-51
2022/05/13 00:13:22;;;;;;;5.93;2.47;;;13.60;99.90;;;;;;5052104;28;20028;-52
2022/05/13 00:15:48;;;;;;;8.68;2.40;;;13.50;99.90;;;;;;5053744;28;20029;-52
2022/05/13 00:18:15;;;;;;;7.32;2.60;;;13.50;99.90;;;;;;5053577;28;20021;-53
2022/05/13 00:20:40;;;;;;;5.40;2.85;;;13.40;99.90;;;;;;5053380;28;20116;-55
2022/05/13 00:23:06;;;;;;;9.95;2.85;;;13.40;99.90;;;;;;5052104;28;20056;-56
2022/05/13 00:25:35;;;;;;;4.93;2.20;;;13.30;99.90;;;;;;5053328;28;20100;-51
2022/05/13 00:28:03;;;;;;;4.80;2.50;;;13.30;99.90;;;;;;5053514;28;20020;-54
2022/05/13 00:30:31;;;;;;;3.92;2.70;;;13.20;99.90;;;;;;5051907;28;20025;-56
2022/05/13 00:32:59;;;;;;;5.22;2.85;;;13.10;99.90;;;;;;5052263;28;20021;-52
2022/05/13 00:35:25;;;;;;;4.75;3.00;;;13.00;99.90;;;;;;5053479;28;20071;-52
2022/05/13 00:37:50;;;;;;;5.35;2.78;;;12.90;99.90;;;;;;5053048;28;20025;-52
2022/05/13 00:40:18;;;;;;;4.45;2.53;;;12.90;99.90;;;;;;5051718;28;20020;-53
2022/05/13 00:42:43;;;;;;;12.05;2.92;;;12.90;99.90;;;;;;5053039;28;20044;-53
2022/05/13 00:45:13;;;;;;;4.93;2.75;;;12.90;99.90;;;;;;5053271;28;20064;-56
2022/05/13 00:47:39;;;;;;;5.50;2.55;;;12.90;99.90;;;;;;5051904;28;20029;-52
2022/05/13 00:50:05;;;;;;;10.20;3.78;;;12.80;99.90;;;;;;5051934;28;20028;-53
2022/05/13 00:52:32;;;;;;;7.00;3.00;;;12.80;99.90;;;;;;5052907;28;20478;-55
2022/05/13 00:55:01;;;;;;;7.63;2.90;;;12.70;99.90;;;;;;5052860;28;20047;-55
2022/05/13 00:57:27;;;;;;;7.15;2.78;;;12.80;99.90;;;;;;5052254;28;20090;-55
2022/05/13 00:59:54;;;;;;;3.80;2.40;;;12.70;99.90;;;;;;5051398;28;20044;-52
2022/05/13 01:02:20;;;;;;;4.35;2.50;;;12.70;99.90;;;;;;5052368;28;20017;-56
2022/05/13 01:04:45;;;;;;;6.43;2.65;;;12.70;99.90;;;;;;5051751;28;20031;-51
2022/05/13 01:07:16;;;;;;;3.83;2.63;;;12.60;99.90;;;;;;5051529;28;20021;-53
2022/05/13 01:09:49;;;;;;;4.63;2.85;;;12.60;99.90;;;;;;5052828;28;20025;-50
2022/05/13 01:12:21;;;;;;;4.90;3.13;;;12.60;99.90;;;;;;5052722;28;20094;-52
2022/05/13 01:14:52;;;;;;;3.80;2.72;;;12.50;99.90;;;;;;5051742;28;20100;-51
2022/05/13 01:20:17;;;;;;;6.15;3.03;;;12.40;99.90;;;;;;5053069;28;20059;-52
2022/05/13 01:23:09;;;;;;;4.18;2.67;;;12.40;99.90;;;;;;5052761;28;20036;-51
2022/05/13 01:25:39;;;;;;;4.05;2.80;;;12.30;99.90;;;;;;5051339;28;20021;-55
2022/05/13 01:28:09;;;;;;;5.18;2.67;;;12.20;99.90;;;;;;5051278;28;20055;-56
2022/05/13 01:30:38;;;;;;;5.82;2.95;;;12.10;99.90;;;;;;5051272;28;20112;-50
2022/05/13 01:33:04;;;;;;;5.88;2.88;;;12.10;99.90;;;;;;5052488;28;20100;-52
2022/05/13 01:35:29;;;;;;;7.75;2.85;;;12.00;99.90;;;;;;5055007;28;20223;-52
2022/05/13 01:37:55;;;;;;;2.85;2.20;;;12.00;99.90;;;;;;5056321;28;20021;-51
2022/05/13 01:40:20;;;;;;;6.20;2.60;;;12.00;99.90;;;;;;5055311;28;20044;-53
2022/05/13 01:42:46;;;;;;;4.00;2.47;;;11.90;99.90;;;;;;5056953;28;20028;-54
2022/05/13 01:45:12;;;;;;;4.03;2.50;;;11.80;99.90;;;;;;5056271;28;20025;-56
2022/05/13 01:47:38;;;;;;;4.00;2.55;;;11.80;99.90;;;;;;5056199;28;20025;-53
2022/05/13 01:50:06;;;;;;;4.20;2.97;;;11.70;99.90;;;;;;5054833;28;20025;-53
2022/05/13 01:52:32;;;;;;;4.50;2.70;;;11.70;99.90;;;;;;5056259;28;20021;-57
2022/05/13 01:54:58;;;;;;;6.22;2.80;;;11.70;99.90;;;;;;5056073;28;20021;-53
2022/05/13 01:57:23;;;;;;;3.78;2.50;;;11.60;99.90;;;;;;5056053;28;20077;-53
2022/05/13 01:59:49;;;;;;;5.35;2.97;;;11.60;99.90;;;;;;5054980;28;20032;-54
2022/05/13 02:02:15;;;;;;;5.57;2.60;;;11.60;99.90;;;;;;5055922;28;20017;-57
2022/05/13 02:04:40;;;;;;;5.60;2.75;;;11.50;99.90;;;;;;5054751;28;20067;-51
2022/05/13 02:07:06;;;;;;;3.90;2.45;;;11.50;99.90;;;;;;5054600;28;20035;-53
2022/05/13 02:09:32;;;;;;;3.83;2.40;;;11.50;99.90;;;;;;5054582;28;20021;-52
2022/05/13 02:11:57;;;;;;;5.28;2.60;;;11.40;99.90;;;;;;5054861;28;20075;-52
2022/05/13 02:14:23;;;;;;;4.90;2.70;;;11.40;99.90;;;;;;5056035;28;20088;-52
2022/05/13 02:16:49;;;;;;;6.43;2.70;;;11.30;99.90;;;;;;5055769;28;20033;-52
2022/05/13 02:19:17;;;;;;;5.88;2.50;;;11.30;99.90;;;;;;5055940;28;20021;-55
2022/05/13 02:21:43;;;;;;;5.50;2.72;;;11.20;99.90;;;;;;5055958;28;20099;-55
2022/05/13 02:24:08;;;;;;;6.40;2.90;;;11.20;99.90;;;;;;5054419;28;20435;-55
2022/05/13 02:26:34;;;;;;;3.67;2.10;;;11.10;99.90;;;;;;5055076;28;20062;-52
2022/05/13 02:29:01;;;;;;;7.93;2.90;;;11.00;99.90;;;;;;5055023;28;20025;-50
2022/05/13 02:31:30;;;;;;;3.95;2.53;;;10.90;99.90;;;;;;5054257;28;20060;-52
2022/05/13 02:33:57;;;;;;;4.88;2.53;;;10.80;99.90;;;;;;5055481;28;20033;-49
2022/05/13 02:36:23;;;;;;;11.25;3.45;;;10.80;99.90;;;;;;5054084;28;20059;-50
2022/05/13 02:38:49;;;;;;;4.72;2.80;;;10.90;99.90;;;;;;5055186;28;20029;-50
2022/05/13 02:41:14;;;;;;;5.72;2.75;;;10.90;99.90;;;;;;5054004;28;20392;-54
2022/05/13 02:43:44;;;;;;;3.53;2.75;;;10.90;99.90;;;;;;5055582;28;20055;-52
2022/05/13 02:46:12;;;;;;;4.03;2.38;;;10.90;99.90;;;;;;5053790;28;20021;-54
2022/05/13 02:48:38;;;;;;;4.10;2.63;;;10.90;99.90;;;;;;5055105;28;20031;-55
2022/05/13 02:51:04;;;;;;;7.78;2.95;;;10.80;99.90;;;;;;5054362;28;20025;-52
2022/05/13 02:53:30;;;;;;;10.20;2.97;;;10.80;99.90;;;;;;5053985;28;20025;-50
2022/05/13 02:55:56;;;;;;;2.30;2.03;;;10.80;99.90;;;;;;5053837;28;20111;-51
2022/05/13 02:58:38;;;;;;;8.35;2.60;;;10.70;99.90;;;;;;5053619;28;20120;-51
2022/05/13 03:01:06;;;;;;;6.28;2.90;;;10.70;99.90;;;;;;5054922;28;20024;-52
2022/05/13 03:03:31;;;;;;;6.65;2.72;;;10.70;99.90;;;;;;5054026;28;20026;-53
2022/05/13 03:05:59;;;;;;;3.83;2.78;;;10.60;99.90;;;;;;5054736;28;20029;-50
2022/05/13 03:08:25;;;;;;;5.38;3.08;;;10.50;99.90;;;;;;5053539;28;20116;-53
2022/05/13 03:10:50;;;;;;;6.75;3.15;;;10.40;99.90;;;;;;5053387;28;20053;-50
2022/05/13 03:13:19;;;;;;;6.65;2.70;;;10.40;99.90;;;;;;5054582;28;20033;-51
2022/05/13 03:15:46;;;;;;;6.43;2.47;;;10.30;99.90;;;;;;5053420;28;20032;-53
2022/05/13 03:18:12;;;;;;;4.90;2.88;;;10.30;99.90;;;;;;5054654;28;20024;-53
2022/05/13 03:20:37;;;;;;;4.50;2.78;;;10.30;99.90;;;;;;5053170;28;20025;-53
2022/05/13 03:23:03;;;;;;;7.18;3.42;;;10.30;99.90;;;;;;5054558;28;20031;-50
2022/05/13 03:25:30;;;;;;;6.05;2.88;;;10.30;99.90;;;;;;5054420;28;20064;-51
2022/05/13 03:27:55;;;;;;;5.60;3.10;;;10.30;99.90;;;;;;5054556;28;20033;-50
2022/05/13 03:30:23;;;;;;;6.65;2.55;;;10.40;99.90;;;;;;5054295;28;20029;-52
2022/05/13 03:32:50;;;;;;;5.05;2.92;;;10.50;99.90;;;;;;5054526;28;20029;-54
2022/05/13 03:35:17;;;;;;;5.53;3.20;;;10.50;99.90;;;;;;5054249;28;20029;-54
2022/05/13 03:37:43;;;;;;;3.15;2.58;;;10.40;99.90;;;;;;5054170;28;20029;-53
2022/05/13 03:40:11;;;;;;;6.65;2.80;;;10.30;99.90;;;;;;5052854;28;20021;-57
2022/05/13 03:42:37;;;;;;;4.78;2.63;;;10.30;99.90;;;;;;5053174;28;20040;-56
2022/05/13 03:45:05;;;;;;;5.93;2.85;;;10.30;99.90;;;;;;5052783;28;20025;-51
2022/05/13 03:47:31;;;;;;;4.75;3.30;;;10.30;99.90;;;;;;5053950;28;20036;-53
2022/05/13 03:49:58;;;;;;;5.43;3.10;;;10.40;99.90;;;;;;5053874;28;20104;-53
2022/05/13 03:52:24;;;;;;;4.78;2.60;;;10.50;99.90;;;;;;5052701;28;20028;-54
2022/05/13 03:54:49;;;;;;;5.47;2.88;;;10.50;99.90;;;;;;5052650;28;20021;-57
2022/05/13 03:57:15;;;;;;;5.50;2.88;;;10.60;99.90;;;;;;5053392;28;20021;-53
2022/05/13 03:59:41;;;;;;;5.07;2.80;;;10.60;99.90;;;;;;5052423;28;20025;-50
2022/05/13 04:02:06;;;;;;;3.65;2.53;;;10.60;99.90;;;;;;5052478;28;20020;-51
2022/05/13 04:08:56;;;;;;;6.88;2.78;;;10.60;99.90;;;;;;5052631;28;20029;-54
2022/05/13 04:10:06;;;;;;;4.10;2.92;;;10.70;99.90;;;;;;5053845;28;20028;-52
2022/05/13 04:18:00;;;;;;;5.50;2.63;;;11.00;99.90;;;;;;5053490;28;20079;-54
2022/05/13 04:20:26;;;;;;;5.25;2.78;;;11.30;99.90;;;;;;5053486;28;20021;-53
2022/05/13 04:22:52;;;;;;;3.60;2.47;;;11.40;99.90;;;;;;5053429;28;20021;-55
2022/05/13 04:25:18;;;;;;;3.08;2.47;;;11.60;99.90;;;;;;5052394;28;20028;-51
2022/05/13 04:27:43;;;;;;;7.20;2.75;;;11.90;99.90;;;;;;5053260;28;20021;-53
2022/05/13 04:30:10;;;;;;;4.00;2.60;;;12.20;99.90;;;;;;5053137;28;20017;-48
2022/05/13 04:32:35;;;;;;;7.57;2.97;;;12.50;99.90;;;;;;5052332;28;20017;-50
2022/05/13 04:35:01;;;;;;;6.43;3.42;;;12.80;99.90;;;;;;5052348;28;20028;-48
2022/05/13 04:37:27;;;;;;;4.95;2.90;;;13.10;99.90;;;;;;5052184;28;20399;-51
2022/05/13 04:39:53;;;;;;;5.57;3.45;;;13.30;99.90;;;;;;5052115;28;20029;-50
2022/05/13 04:43:02;;;;;;;6.38;3.17;;;13.70;99.90;;;;;;5052485;28;20031;-49
2022/05/13 04:45:10;;;;;;;10.73;4.10;;;14.00;99.90;;;;;;5053087;28;20037;-49
2022/05/13 04:48:22;;;;;;;10.65;4.50;;;14.40;99.90;;;;;;5052046;28;20068;-50
2022/05/13 04:50:21;;;;;;;9.35;4.38;;;14.70;99.90;;;;;;5052715;28;20055;-51
2022/05/13 04:52:47;;;;;;;10.50;4.85;;;15.20;99.90;;;;;;5052012;28;20020;-49
2022/05/13 04:55:13;;;;;;;10.10;4.75;;;15.50;99.90;;;;;;5053563;28;20486;-52
2022/05/13 04:57:39;;;;;;;16.13;5.93;;;15.80;99.90;;;;;;5051939;28;20049;-49
2022/05/13 05:00:07;;;;;;;10.70;4.82;;;16.20;99.90;;;;;;5051895;28;20013;-49
2022/05/13 05:02:33;;;;;;;12.23;5.22;;;16.50;99.90;;;;;;5053141;28;20543;-50
2022/05/13 05:04:59;;;;;;;10.00;5.18;;;16.80;99.90;;;;;;5051879;28;20025;-48
2022/05/13 05:07:25;;;;;;;12.45;4.57;;;17.10;99.90;;;;;;5051919;28;20024;-51
2022/05/13 05:09:50;;;;;;;12.27;4.60;;;17.40;99.90;;;;;;5054709;28;20082;-51
2022/05/13 05:12:16;;;;;;;9.57;4.65;;;17.80;99.90;;;;;;5057294;28;20025;-50
2022/05/13 05:14:42;;;;;;;11.93;4.07;;;18.10;99.90;;;;;;5056141;28;20086;-51
2022/05/13 05:17:07;;;;;;;5.15;3.05;;;18.40;99.90;;;;;;5057254;28;20074;-52
2022/05/13 05:19:33;;;;;;;9.25;3.92;;;18.80;99.90;;;;;;5055798;28;20025;-53
2022/05/13 05:21:59;;;;;;;5.82;3.38;;;19.10;99.90;;;;;;5055860;28;20074;-55
2022/05/13 05:24:24;;;;;;;10.38;3.17;;;19.40;99.90;;;;;;5056201;28;20021;-50
2022/05/13 05:26:50;;;;;;;7.63;2.88;;;19.90;99.90;;;;;;5055856;28;20017;-52
2022/05/13 05:29:16;;;;;;;8.88;3.10;;;20.30;99.90;;;;;;5056080;28;20120;-54
2022/05/13 05:31:42;;;;;;;5.28;2.53;;;20.60;99.90;;;;;;5056977;28;20017;-52
2022/05/13 05:34:09;;;;;;;11.40;3.20;;;20.80;99.90;;;;;;5056629;28;20028;-51
2022/05/13 05:36:35;;;;;;;6.32;2.30;;;21.20;99.90;;;;;;5057141;28;20025;-50
2022/05/13 05:39:01;;;;;;;9.40;2.33;;;21.50;99.90;;;;;;5056752;28;20028;-52
2022/05/13 05:41:26;;;;;;;3.33;1.70;;;22.00;99.90;;;;;;5056475;28;20025;-50
2022/05/13 05:43:52;;;;;;;5.97;1.70;;;22.40;99.90;;;;;;5056112;28;20021;-53
2022/05/13 05:46:18;;;;;;;6.50;2.10;;;22.80;99.90;;;;;;5055376;28;20032;-54
2022/05/13 05:48:44;;;;;;;9.07;2.05;;;23.20;99.90;;;;;;5056690;28;20029;-55
2022/05/13 05:51:09;;;;;;;10.88;1.98;;;23.20;99.90;;;;;;5056692;28;20032;-53
2022/05/13 05:59:04;;;;;;;5.95;2.00;;;23.80;98.70;;;;;;5056480;28;20499;-56
2022/05/13 06:01:30;;;;;;;6.95;2.13;;;23.90;97.60;;;;;;5055748;28;20047;-55
2022/05/13 06:03:56;;;;;;;4.65;2.00;;;23.80;96.80;;;;;;5055980;28;20384;-54
2022/05/13 06:06:21;;;;;;;7.40;2.30;;;24.00;96.30;;;;;;5054984;28;20017;-56
2022/05/13 06:08:47;;;;;;;5.10;2.20;;;24.10;95.40;;;;;;5054889;28;20475;-57
2022/05/13 06:11:13;;;;;;;8.82;2.13;;;24.50;94.80;;;;;;5056254;28;20062;-56
2022/05/13 06:13:39;;;;;;;4.40;1.65;;;24.70;94.30;;;;;;5056566;28;20053;-57
2022/05/13 06:16:07;;;;;;;4.00;1.75;;;24.90;92.90;;;;;;5055341;28;20054;-51
2022/05/13 06:18:35;;;;;;;10.13;2.22;;;24.90;92.20;;;;;;5054775;28;20028;-52
2022/05/13 06:21:01;;;;;;;4.85;1.92;;;25.10;91.50;;;;;;5055268;28;20031;-53
2022/05/13 06:23:26;;;;;;;4.28;1.73;;;25.10;91.40;;;;;;5056060;28;20426;-50
2022/05/13 06:25:52;;;;;;;4.10;1.50;;;25.30;90.60;;;;;;5055086;28;20025;-53
2022/05/13 06:28:17;;;;;;;4.30;1.70;;;25.80;89.30;;;;;;5054689;28;20075;-56
2022/05/13 06:30:43;;;;;;;6.20;1.60;;;26.20;86.90;;;;;;5054583;28;20063;-54
2022/05/13 06:33:09;;;;;;;3.55;1.38;;;26.50;83.70;;;;;;5055813;28;20071;-50
2022/05/13 06:35:35;;;;;;;4.20;1.60;;;26.60;81.30;;;;;;5054548;28;20052;-58
2022/05/13 06:38:01;;;;;;;6.28;2.40;;;26.90;82.50;;;;;;5054469;28;20082;-58
2022/05/13 06:40:26;;;;;;;4.25;1.70;;;27.00;78.20;;;;;;5055588;28;20031;-54
2022/05/13 06:42:52;;;;;;;4.53;1.50;;;26.60;78.10;;;;;;5054685;28;20021;-57
2022/05/13 06:45:18;;;;;;;4.30;1.50;;;26.10;78.20;;;;;;5054390;28;20111;-52
2022/05/13 06:47:44;;;;;;;4.97;1.67;;;25.70;80.40;;;;;;5054351;28;20079;-57
2022/05/13 06:50:13;;;;;;;3.33;1.60;;;25.50;78.90;;;;;;5055439;28;20422;-56
2022/05/13 06:52:38;;;;;;;6.05;1.90;;;24.90;79.30;;;;;;5054264;28;20032;-57
2022/05/13 06:55:05;;;;;;;6.40;1.45;;;24.40;79.80;;;;;;5055045;28;20021;-57
2022/05/13 06:57:31;;;;;;;5.78;2.17;;;24.60;80.80;;;;;;5054429;28;20071;-56
2022/05/13 06:59:57;;;;;;;4.55;1.50;;;24.70;78.80;;;;;;5055368;28;20033;-53
2022/05/13 07:02:23;;;;;;;4.60;1.70;;;25.10;78.90;;;;;;5055854;28;20026;-56
2022/05/13 07:04:49;;;;;;;6.07;2.55;;;25.80;79.90;;;;;;5053948;28;20025;-56
2022/05/13 07:07:15;;;;;;;4.32;2.28;;;26.20;78.10;;;;;;5054232;28;20021;-54
2022/05/13 07:09:41;;;;;;;9.48;1.70;;;27.00;78.10;;;;;;5054355;28;20032;-56
2022/05/13 07:12:08;;;;;;;4.47;1.80;;;27.50;74.10;;;;;;5055701;28;20040;-57
2022/05/13 07:14:35;;;;;;;4.95;1.60;;;27.90;73.80;;;;;;5054016;28;20119;-55
2022/05/13 07:17:02;;;;;;;6.70;1.80;;;28.00;75.80;;;;;;5053865;28;20036;-53
2022/05/13 07:19:28;;;;;;;8.10;1.40;;;27.90;71.30;;;;;;5053958;28;20078;-59
2022/05/13 07:21:54;;;;;;;7.97;2.53;;;27.40;71.80;;;;;;5054943;28;20017;-57
2022/05/13 07:24:19;;;;;;;4.75;2.22;;;26.50;73.20;;;;;;5054012;28;20071;-57
2022/05/13 07:26:46;;;;;;;6.90;1.60;;;26.20;73.20;;;;;;5055162;28;20021;-54
2022/05/13 07:29:11;;;;;;;4.20;1.38;;;25.30;74.70;;;;;;5055235;28;20032;-58
2022/05/13 07:31:38;;;;;;;5.30;1.60;;;24.90;75.80;;;;;;5054335;28;20025;-54
2022/05/13 07:34:03;;;;;;;5.90;1.50;;;24.70;78.00;;;;;;5052979;28;20403;-57
2022/05/13 07:36:29;;;;;;;2.08;1.30;;;24.60;77.20;;;;;;5053884;28;20017;-55
2022/05/13 07:41:39;;;;;;;6.03;1.73;;;24.80;76.20;;;;;;5054971;28;20086;-52
2022/05/13 07:44:06;;;;;;;7.45;1.63;;;24.40;77.50;;;;;;5054469;28;20451;-56
2022/05/13 07:46:32;;;;;;;7.97;1.70;;;24.40;77.30;;;;;;5053209;28;20025;-57
2022/05/13 07:48:58;;;;;;;6.53;1.67;;;24.80;76.70;;;;;;5054634;28;20048;-56
2022/05/13 07:51:26;;;;;;;8.38;1.85;;;25.10;76.20;;;;;;5054599;28;20094;-54
2022/05/13 07:53:52;;;;;;;7.18;2.05;;;24.90;75.10;;;;;;5053029;28;20028;-58
2022/05/13 07:56:18;;;;;;;8.35;2.03;;;24.90;75.40;;;;;;5053196;28;20033;-57
2022/05/13 07:58:43;;;;;;;4.80;1.33;;;25.40;75.50;;;;;;5054172;28;20040;-57
2022/05/13 08:01:09;;;;;;;10.07;1.70;;;26.50;74.40;;;;;;5054243;28;20029;-55
2022/05/13 08:03:34;;;;;;;5.18;1.50;;;27.70;72.60;;;;;;5052888;28;20479;-57
2022/05/13 08:06:03;;;;;;;7.80;1.83;;;28.00;70.50;;;;;;5053149;28;20025;-56
2022/05/13 08:08:40;;;;;;;10.50;2.40;;;28.30;70.10;;;;;;5054119;28;20025;-54
2022/05/13 08:11:10;;;;;;;8.32;1.60;;;27.80;69.80;;;;;;5054347;28;20028;-56
2022/05/13 08:13:36;;;;;;;4.55;1.60;;;27.40;70.20;;;;;;5052583;28;20029;-57
2022/05/13 08:16:04;;;;;;;5.05;1.70;;;26.90;71.60;;;;;;5053238;28;20115;-58
2022/05/13 08:18:32;;;;;;;8.75;1.75;;;26.20;73.30;;;;;;5052659;28;20041;-56
2022/05/13 08:20:58;;;;;;;4.72;1.42;;;26.10;72.50;;;;;;5053818;28;20099;-54
2022/05/13 08:23:23;;;;;;;7.65;1.88;;;25.70;73.70;;;;;;5053788;28;20095;-53
2022/05/13 08:25:50;;;;;;;6.22;1.80;;;25.20;75.30;;;;;;5053768;28;20021;-53
2022/05/13 08:28:18;;;;;;;12.00;1.70;;;24.80;74.80;;;;;;5053753;28;20100;-54
2022/05/13 08:30:44;;;;;;;8.05;1.77;;;24.70;75.60;;;;;;5053882;28;20041;-53
2022/05/13 08:33:10;;;;;;;5.25;1.52;;;24.50;75.10;;;;;;5052711;28;20048;-55
2022/05/13 08:35:46;;;;;;;10.40;1.52;;;24.10;77.10;;;;;;5052735;28;20025;-54
2022/05/13 08:38:12;;;;;;;4.93;1.50;;;24.30;77.60;;;;;;5052680;28;20029;-53
2022/05/13 08:40:50;;;;;;;6.93;1.70;;;25.50;74.80;;;;;;5053550;28;20480;-56
2022/05/13 08:43:26;;;;;;;6.97;2.13;;;26.70;71.60;;;;;;5053323;28;20029;-55
2022/05/13 08:46:05;;;;;;;4.70;1.70;;;27.20;69.90;;;;;;5052236;28;20071;-57
2022/05/13 08:49:04;;;;;;;6.53;1.83;;;27.80;68.30;;;;;;5052753;28;20063;-56
2022/05/13 08:51:51;;;;;;;3.53;1.40;;;28.50;66.50;;;;;;5049843;28;20033;-57
2022/05/13 08:54:21;;;;;;;8.30;1.60;;;28.50;65.30;;;;;;5052193;28;20125;-55
2022/05/13 08:56:53;;;;;;;3.58;1.20;;;27.90;64.40;;;;;;5053325;28;20033;-58
2022/05/13 08:59:27;;;;;;;4.72;1.52;;;27.80;64.40;;;;;;5052248;28;20044;-57
2022/05/13 09:01:57;;;;;;;3.92;1.95;;;27.40;63.60;;;;;;5053330;28;20043;-56
2022/05/13 09:04:36;;;;;;;6.68;1.65;;;27.20;64.60;;;;;;5051964;28;20025;-56
2022/05/13 09:07:05;;;;;;;2.10;1.00;;;27.30;62.90;;;;;;5052065;28;20047;-57
2022/05/13 09:09:32;;;;;;;6.43;1.02;;;28.40;62.80;;;;;;5051948;28;20434;-58
2022/05/13 09:12:06;;;;;;;5.47;1.00;;;29.70;59.90;;;;;;5053518;28;20083;-55
2022/05/13 09:14:40;;;;;;;7.57;1.50;;;30.70;56.60;;;;;;5053279;28;20025;-59
2022/05/13 09:17:33;;;;;;;3.95;1.38;;;31.70;55.80;;;;;;5053006;28;20482;-53
2022/05/13 09:20:40;;;;;;;4.13;1.20;;;32.20;56.00;;;;;;5052728;28;20025;-58
2022/05/13 09:23:10;;;;;;;4.68;1.13;;;32.50;53.30;;;;;;5032908;28;20029;-57
2022/05/13 09:25:57;;;;;;;3.47;1.15;;;33.50;54.10;;;;;;5052191;28;20094;-57
2022/05/13 09:28:25;;;;;;;4.80;1.33;;;33.70;52.70;;;;;;5051834;28;20032;-57
2022/05/13 09:30:55;;;;;;;6.65;1.17;;;34.10;51.60;;;;;;5052865;28;20017;-56
2022/05/13 09:33:20;;;;;;;4.88;1.15;;;34.50;50.00;;;;;;5053314;28;20025;-55
2022/05/13 09:35:47;;;;;;;3.55;1.17;;;34.60;49.90;;;;;;5051867;28;20047;-55
2022/05/13 09:38:26;;;;;;;2.78;1.00;;;35.10;48.30;;;;;;5051607;28;20021;-54
2022/05/13 09:41:01;;;;;;;3.28;1.17;;;35.40;47.10;;;;;;5051680;28;20422;-53
2022/05/13 09:43:37;;;;;;;6.35;1.50;;;35.70;47.40;;;;;;5051672;28;20017;-54
2022/05/13 09:46:07;;;;;;;2.67;1.08;;;35.70;46.50;;;;;;5052899;28;20537;-53
2022/05/13 09:48:36;;;;;;;4.85;1.42;;;34.90;46.80;;;;;;5051555;28;20414;-54
2022/05/13 09:51:25;;;;;;;6.05;1.17;;;35.00;47.40;;;;;;5052806;28;20048;-55
2022/05/13 09:54:03;;;;;;;3.70;1.08;;;34.60;47.20;;;;;;5051600;28;20047;-56
2022/05/13 09:56:53;;;;;;;2.85;0.85;;;35.50;46.10;;;;;;5055116;28;20029;-52
2022/05/13 09:59:22;;;;;;;11.73;1.27;;;36.10;47.20;;;;;;5056456;28;20108;-53
2022/05/13 10:01:48;;;;;;;5.28;1.20;;;36.10;44.60;;;;;;5056463;28;20048;-55
2022/05/13 10:04:23;;;;;;;4.93;1.20;;;36.40;46.20;;;;;;5056025;28;20017;-55
2022/05/13 10:06:50;;;;;;;2.75;1.10;;;36.20;45.20;;;;;;5056672;28;20506;-55
2022/05/13 10:15:20;;;;;;;1.95;0.88;;;35.50;45.20;;;;;;5056255;28;20044;-54
2022/05/13 10:17:51;;;;;;;7.70;1.38;;;35.20;46.10;;;;;;5056191;28;20032;-56
2022/05/13 10:20:40;;;;;;;2.72;0.90;;;34.40;45.80;;;;;;5054839;28;20036;-53
2022/05/13 10:23:18;;;;;;;4.13;1.10;;;33.90;46.10;;;;;;5055638;28;20033;-57
2022/05/13 10:25:46;;;;;;;2.50;0.82;;;32.80;46.80;;;;;;5056062;28;20047;-56
2022/05/13 10:28:16;;;;;;;3.85;1.23;;;32.60;49.10;;;;;;5055907;28;20087;-58
2022/05/13 10:30:47;;;;;;;7.00;1.27;;;32.20;48.00;;;;;;5054601;28;20480;-57
2022/05/13 10:33:28;;;;;;;;;;;32.20;49.10;;;;;;5056256;28;20025;-56
2022/05/13 10:36:09;;;;;;;5.22;1.38;;;31.40;49.60;;;;;;5056106;28;19927;-56
2022/05/13 10:38:49;;;;;;;;;;;31.10;49.70;;;;;;5056080;28;20025;-52
2022/05/13 10:41:29;;;;;;;3.17;0.90;;;30.30;50.50;;;;;;5055642;28;19904;-54
2022/05/13 10:43:59;;;;;;;2.50;1.10;;;29.70;50.40;;;;;;5054395;28;20025;-53
2022/05/13 10:46:49;;;;;;;4.63;1.15;;;28.90;52.70;;;;;;5054332;28;20024;-56
2022/05/13 10:49:14;;;;;;;4.47;1.02;;;28.40;52.50;;;;;;5055074;28;20045;-56
2022/05/13 10:52:05;;;;;;;5.32;0.98;;;27.70;54.70;;;;;;5055769;28;20490;-51
2022/05/13 10:54:34;;;;;;;1.60;0.73;;;27.20;54.90;;;;;;5054808;28;20464;-54
2022/05/13 10:57:18;;;;;;;4.38;0.88;;;26.90;56.00;;;;;;5055672;28;20020;-52
2022/05/13 11:00:08;;;;;;;6.78;0.70;;;27.00;53.00;;;;;;5053952;28;20025;-51
2022/05/13 11:02:46;;;;;;;4.47;1.02;;;26.80;52.60;;;;;;5054513;28;20033;-56
2022/05/13 11:05:37;;;;;;;5.18;0.75;;;26.70;53.80;;;;;;5054278;28;20029;-51
2022/05/13 11:08:36;;;;;;;3.20;0.95;;;26.40;53.90;;;;;;5053105;28;20021;-53
2022/05/13 11:11:35;;;;;;;1.48;0.55;;;26.10;55.50;;;;;;5055312;28;20024;-51
2022/05/13 11:14:33;;;;;;;3.45;0.57;;;25.60;55.40;;;;;;5055054;28;20021;-53
2022/05/13 11:17:07;;;;;;;3.30;0.82;;;25.60;56.10;;;;;;5055113;28;20046;-53
2022/05/13 11:19:50;;;;;;;3.97;0.50;;;25.50;55.30;;;;;;5054813;28;20052;-53
2022/05/13 11:22:29;;;;;;;3.53;0.90;;;25.40;55.50;;;;;;5054803;28;20059;-55
2022/05/13 11:28:32;;;;;;;1.40;0.65;;;25.10;56.60;;;;;;5044593;28;20032;-55
2022/05/13 11:31:19;;;;;;;3.65;0.80;;;25.00;56.40;;;;;;5053766;28;20108;-56
2022/05/13 11:34:04;;;;;;;1.63;0.68;;;25.10;55.80;;;;;;5053521;28;20025;-56
2022/05/13 11:36:56;;;;;;;6.60;1.67;;;25.10;55.80;;;;;;5054322;28;20075;-54
2022/05/13 11:39:51;;;;;;;1.98;0.80;;;25.10;59.20;;;;;;5053945;28;20029;-52
2022/05/13 11:43:18;;;;;;;1.70;0.65;;;25.20;55.70;;;;;;5054624;28;20113;-56
2022/05/13 11:45:30;;;;;;;5.85;0.90;;;25.20;56.20;;;;;;5054404;28;20025;-54
2022/05/13 11:48:22;;;;;;;1.75;0.77;;;25.10;57.00;;;;;;5053332;28;20021;-54
2022/05/13 11:50:48;;;;;;;1.98;0.65;;;25.10;57.90;;;;;;5054563;28;20017;-51
2022/05/13 11:53:43;;;;;;;2.60;0.70;;;25.00;58.90;;;;;;5054385;28;20024;-53
2022/05/13 11:56:26;;;;;;;1.92;0.82;;;24.70;58.30;;;;;;5053897;28;20017;-53
2022/05/13 11:59:03;;;;;;;3.45;0.75;;;24.50;57.40;;;;;;5054135;28;20025;-56
2022/05/13 12:01:34;;;;;;;2.13;0.43;;;24.60;57.30;;;;;;5054524;28;20024;-55
2022/05/13 12:04:12;;;;;;;3.55;0.73;;;24.60;57.90;;;;;;5054005;28;20028;-54
2022/05/13 12:06:49;;;;;;;3.03;1.08;;;24.50;59.10;;;;;;5052902;28;20127;-56
2022/05/13 12:09:28;;;;;;;5.65;0.80;;;24.60;58.40;;;;;;5054058;28;20033;-53
2022/05/13 12:12:01;;;;;;;5.38;1.10;;;24.40;57.90;;;;;;5053499;28;20028;-58
2022/05/13 12:15:03;;;;;;;1.75;0.90;;;24.40;58.50;;;;;;5053905;28;20575;-54
2022/05/13 12:18:03;;;;;;;0.73;0.52;;;24.30;58.60;;;;;;5050230;28;20043;-56
2022/05/13 12:20:43;;;;;;;3.42;0.75;;;24.40;58.90;;;;;;5052718;28;20167;-54
2022/05/13 12:23:29;;;;;;;4.15;0.88;;;24.30;60.60;;;;;;5052824;28;20033;-57
2022/05/13 12:26:04;;;;;;;3.72;0.90;;;24.40;59.30;;;;;;5053720;28;20025;-56
2022/05/13 12:29:00;;;;;;;2.55;0.80;;;24.40;58.50;;;;;;5052963;28;20036;-55
2022/05/13 12:31:29;;;;;;;3.28;0.80;;;24.40;58.90;;;;;;5040517;28;20408;-56
2022/05/13 12:39:52;;;;;;;3.25;0.80;;;24.30;59.60;;;;;;5053774;28;20079;-56
2022/05/13 12:42:38;;;;;;;3.67;0.73;;;24.00;59.50;;;;;;5052307;28;20025;-51
2022/05/13 12:45:08;;;;;;;3.88;0.90;;;24.20;58.90;;;;;;5053523;28;20460;-53
2022/05/13 12:47:55;;;;;;;1.70;0.75;;;24.30;59.70;;;;;;5052151;28;20098;-55
2022/05/13 12:50:44;;;;;;;3.55;0.80;;;24.10;59.80;;;;;;5052461;28;20107;-54
2022/05/13 12:53:28;;;;;;;3.40;1.10;;;24.00;61.60;;;;;;5054038;28;20052;-51
2022/05/13 12:56:00;;;;;;;3.10;1.30;;;24.00;60.20;;;;;;5052379;28;20017;-53
2022/05/13 12:58:28;;;;;;;4.93;0.82;;;23.80;60.40;;;;;;5053244;28;20037;-56
2022/05/13 13:00:55;;;;;;;3.40;0.85;;;23.90;58.90;;;;;;5053205;28;20399;-57
2022/05/13 13:03:22;;;;;;;2.80;0.70;;;24.00;59.90;;;;;;5053419;28;20028;-54
2022/05/13 13:06:07;;;;;;;3.50;0.80;;;23.90;59.30;;;;;;5053341;28;20029;-53
2022/05/13 13:08:38;;;;;;;2.83;0.70;;;23.90;60.90;;;;;;5052030;28;20471;-56
2022/05/13 13:11:35;;;;;;;2.15;0.77;;;23.70;63.70;;;;;;5053274;28;20037;-56
2022/05/13 13:14:26;;;;;;;6.47;0.90;;;23.70;64.40;;;;;;5052888;28;20040;-58
2022/05/13 13:17:11;;;;;;;2.03;0.60;;;23.60;62.30;;;;;;5052732;28;20021;-54
2022/05/13 13:19:37;;;;;;;2.78;0.80;;;23.50;61.80;;;;;;5052435;28;20025;-55
2022/05/13 13:22:12;;;;;;;3.13;0.82;;;23.40;62.40;;;;;;5053072;28;20017;-53
2022/05/13 13:24:39;;;;;;;2.25;0.60;;;23.50;63.30;;;;;;5052052;28;20017;-55
2022/05/13 13:27:12;;;;;;;3.45;0.88;;;23.70;63.50;;;;;;5053024;28;20022;-53
2022/05/13 13:29:41;;;;;;;2.38;0.80;;;23.80;61.90;;;;;;5053388;28;20033;-53
2022/05/13 13:32:21;;;;;;;2.47;0.63;;;23.80;61.40;;;;;;5056774;28;20064;-57
2022/05/13 13:34:53;;;;;;;5.95;0.80;;;23.70;60.00;;;;;;5055784;28;20025;-54
2022/05/13 13:37:24;;;;;;;3.60;0.80;;;23.60;62.40;;;;;;5055723;28;20060;-51
2022/05/13 13:39:49;;;;;;;0.82;0.50;;;23.60;60.10;;;;;;5056146;28;20037;-53